Grantsville, Maryland
Current Conditions -  °F | °C
As of 6:55 PM on Friday 28 Nov 2014 (Local Time) from K2G4 Reporting Station
Broken Clouds Broken Clouds  
Wind Chill: 11°   Ceiling: 1700
Heat Index: 19°   Visibility: 10mi
Dew Point: 19°   Wind: 6mph
Humidity: 100%   Direction: 220°SW
Pressure: 30.13"   Gusts: NA
Location:  39.7°N, 79.15°W
Report Text: K2G4 282355Z AUTO 22005KT 10SM BKN017 BKN090 M07/M07 A3013 RMK AO1
Loading
Personal Weather Stations






























Interactive Weather Map New forecast layout! Learn more

10-Day Weather Forecast

Advertisements
Track Severe Weather on mobile